Jacobstown, New Jersey
Current Conditions -  °F | °C
As of 3:58 PM on Wednesday 17 Dec 2014 (Local Time) from KWRI Reporting Station
Overcast Overcast  
Wind Chill: 42°   Ceiling: 4000
Heat Index: 49°   Visibility: 10mi
Dew Point: 34°   Wind: 18mph
Humidity: 56%   Direction: 290°WNW
Pressure: 29.87"   Gusts: 25mph
Location:  40.0733°N, 74.5866°W
Report Text: KWRI 172058Z AUTO 29016G22KT 10SM OVC040 09/01 A2987 RMK AO2 PK WND 31028/31 SLP119 T00930010 53012
Loading
Personal Weather Stations






























Interactive Weather Map New forecast layout! Learn more

10-Day Weather Forecast

Advertisements
Track Severe Weather on mobile